createdAt,value
2023-05-18T00:01:49.521Z,102441.63
2023-05-18T00:04:52.219Z,102448.59
2023-05-18T00:07:54.856Z,102445.09
2023-05-18T00:10:58.886Z,102445.09
2023-05-18T00:14:03.278Z,102448.66
2023-05-18T00:17:06.414Z,102447.97
2023-05-18T00:20:10.671Z,102446.03
2023-05-18T00:23:16.200Z,102444.22
2023-05-18T00:26:20.874Z,102440.88
2023-05-18T00:29:23.498Z,102443.34
2023-05-18T00:32:26.383Z,102448.69
2023-05-18T00:35:29.540Z,102455.75
2023-05-18T00:38:32.499Z,102453.56
2023-05-18T00:41:37.228Z,102450.63
2023-05-18T00:44:39.909Z,102455.03
2023-05-18T00:47:42.561Z,102462.06
2023-05-18T00:50:45.366Z,102460.28
2023-05-18T00:53:48.466Z,102454.19
2023-05-18T00:56:52.634Z,102458.50
2023-05-18T00:59:56.327Z,102454.97
2023-05-18T01:02:59.852Z,102453.16
2023-05-18T01:06:05.827Z,102459.50
2023-05-18T01:09:10.482Z,102463.31
2023-05-18T01:12:22.017Z,102461.41
2023-05-18T01:15:32.412Z,102466.59
2023-05-18T01:18:43.563Z,102470.88
2023-05-18T01:22:00.939Z,102467.66
2023-05-18T01:25:14.765Z,102461.38
2023-05-18T01:28:26.445Z,102467.53
2023-05-18T01:31:30.245Z,102463.06
2023-05-18T01:34:33.148Z,102463.91
2023-05-18T01:37:35.933Z,102461.28
2023-05-18T01:40:59.871Z,102468.41
2023-05-18T01:44:09.575Z,102472.94
2023-05-18T01:47:15.029Z,102469.47
2023-05-18T01:50:22.013Z,102477.34
2023-05-18T01:53:29.251Z,102478.13
2023-05-18T01:56:33.983Z,102470.28
2023-05-18T01:59:38.884Z,102480.94
2023-05-18T02:02:42.122Z,102474.69
2023-05-18T02:05:44.802Z,102474.63
2023-05-18T02:08:47.546Z,102478.19
2023-05-18T02:11:50.478Z,102470.28
2023-05-18T02:14:55.299Z,102476.47
2023-05-18T02:17:58.290Z,102475.81
2023-05-18T02:21:01.418Z,102470.31
2023-05-18T02:24:04.251Z,102464.19
2023-05-18T02:27:07.065Z,102474.03
2023-05-18T02:30:14.435Z,102474.78
2023-05-18T02:33:19.651Z,102473.97
2023-05-18T02:36:22.465Z,102482.00
2023-05-18T02:39:25.107Z,102483.81
2023-05-18T02:42:27.829Z,102483.78
2023-05-18T02:45:31.931Z,102488.22
2023-05-18T02:48:34.798Z,102482.16
2023-05-18T02:51:37.480Z,102484.81
2023-05-18T02:54:40.111Z,102493.66
2023-05-18T02:57:47.153Z,102490.16
2023-05-18T03:00:52.839Z,102496.38
2023-05-18T03:03:57.593Z,102499.03
2023-05-18T03:07:02.690Z,102495.50
2023-05-18T03:10:07.663Z,102491.09
2023-05-18T03:13:10.567Z,102487.56
2023-05-18T03:16:15.007Z,102489.22
2023-05-18T03:19:17.672Z,102498.09
2023-05-18T03:22:20.423Z,102485.72
2023-05-18T03:25:25.416Z,102492.81
2023-05-18T03:28:28.060Z,102495.44
2023-05-18T03:31:32.053Z,102499.00
2023-05-18T03:34:35.039Z,102491.94
2023-05-18T03:37:37.789Z,102498.97
2023-05-18T03:40:40.755Z,102499.03
2023-05-18T03:43:43.375Z,102506.03
2023-05-18T03:46:47.457Z,102507.78
2023-05-18T03:49:50.172Z,102511.41
2023-05-18T03:52:54.002Z,102507.78
2023-05-18T03:55:56.873Z,102502.47
2023-05-18T03:59:00.078Z,102505.13
2023-05-18T04:02:04.190Z,102506.13
2023-05-18T04:05:08.165Z,102512.28
2023-05-18T04:08:14.137Z,102513.16
2023-05-18T04:11:16.895Z,102509.56
2023-05-18T04:14:21.426Z,102515.69
2023-05-18T04:17:25.405Z,102520.03
2023-05-18T04:20:28.336Z,102513.00
2023-05-18T04:23:33.380Z,102527.31
2023-05-18T04:26:38.489Z,102526.28
2023-05-18T04:29:43.674Z,102527.13
2023-05-18T04:32:48.059Z,102540.34
2023-05-18T04:35:55.145Z,102532.34
2023-05-18T04:38:59.394Z,102542.91
2023-05-18T04:42:04.532Z,102546.66
2023-05-18T04:45:07.933Z,102551.81
2023-05-18T04:48:11.961Z,102550.00
2023-05-18T04:51:17.748Z,102552.59
2023-05-18T04:54:20.723Z,102553.56
2023-05-18T04:57:23.349Z,102560.53
2023-05-18T05:00:28.881Z,102555.41
2023-05-18T05:03:33.275Z,102561.59
2023-05-18T05:06:36.128Z,102567.84
2023-05-18T05:09:38.786Z,102566.97
2023-05-18T05:12:42.287Z,102566.03
2023-05-18T05:15:44.967Z,102573.00
2023-05-18T05:18:49.022Z,102564.25
2023-05-18T05:21:51.663Z,102574.66
2023-05-18T05:24:54.341Z,102578.09
2023-05-18T05:27:56.997Z,102576.19
2023-05-18T05:30:59.707Z,102585.34
2023-05-18T05:34:03.820Z,102590.72
2023-05-18T05:37:06.886Z,102590.56
2023-05-18T05:40:10.703Z,102582.66
2023-05-18T05:43:13.352Z,102581.56
2023-05-18T05:46:16.109Z,102589.28
2023-05-18T05:49:20.117Z,102597.19
2023-05-18T05:52:22.872Z,102590.91
2023-05-18T05:55:25.591Z,102597.34
2023-05-18T05:58:28.233Z,102600.91
2023-05-18T06:01:30.870Z,102605.22
2023-05-18T06:04:34.897Z,102608.31
2023-05-18T06:07:37.739Z,102605.06
2023-05-18T06:10:41.293Z,102607.28
2023-05-18T06:13:43.956Z,102608.88
2023-05-18T06:16:46.686Z,102613.84
2023-05-18T06:19:50.663Z,102607.16
2023-05-18T06:22:53.276Z,102611.03
2023-05-18T06:25:55.959Z,102607.25
2023-05-18T06:28:58.817Z,102615.88
2023-05-18T06:32:01.684Z,102618.41
2023-05-18T06:35:07.271Z,102620.22
2023-05-18T06:38:10.043Z,102629.34
2023-05-18T06:41:12.691Z,102632.06
2023-05-18T06:44:15.395Z,102630.09
2023-05-18T06:47:18.040Z,102627.03
2023-05-18T06:50:22.067Z,102626.19
2023-05-18T06:53:24.780Z,102628.00
2023-05-18T06:56:27.564Z,102632.34
2023-05-18T06:59:30.457Z,102625.97
2023-05-18T07:02:33.087Z,102621.16
2023-05-18T07:05:39.404Z,102628.66
2023-05-18T07:08:42.419Z,102630.91
2023-05-18T07:11:45.914Z,102631.00
2023-05-18T07:14:48.924Z,102636.16
2023-05-18T07:17:51.754Z,102623.53
2023-05-18T07:20:55.817Z,102630.53
2023-05-18T07:23:58.478Z,102636.56
2023-05-18T07:27:01.320Z,102628.16
2023-05-18T07:30:04.244Z,102636.88
2023-05-18T07:33:07.019Z,102636.91
2023-05-18T07:36:11.168Z,102639.00
2023-05-18T07:39:19.679Z,102639.09
2023-05-18T07:42:22.478Z,102638.22
2023-05-18T07:45:25.153Z,102643.03
2023-05-18T07:48:27.776Z,102639.94
2023-05-18T07:51:31.745Z,102640.41
2023-05-18T07:54:34.384Z,102642.94
2023-05-18T07:57:37.071Z,102639.28
2023-05-18T08:00:39.749Z,102644.50
2023-05-18T08:03:42.717Z,102643.84
2023-05-18T08:06:46.855Z,102644.09
2023-05-18T08:09:49.470Z,102643.16
2023-05-18T08:12:52.706Z,102648.50
2023-05-18T08:16:09.877Z,102645.00
2023-05-18T08:19:14.231Z,102637.53
2023-05-18T08:22:18.236Z,102635.50
2023-05-18T08:25:21.273Z,102631.50
2023-05-18T08:28:24.179Z,102642.19
2023-05-18T08:31:26.875Z,102630.78
2023-05-18T08:34:30.075Z,102636.47
2023-05-18T08:37:34.120Z,102637.41
2023-05-18T08:40:43.491Z,102634.72
2023-05-18T08:43:47.857Z,102631.13
2023-05-18T08:46:51.800Z,102639.84
2023-05-18T08:49:57.400Z,102635.50
2023-05-18T08:53:03.098Z,102633.41
2023-05-18T08:56:06.859Z,102630.69
2023-05-18T08:59:12.338Z,102637.72
2023-05-18T09:02:15.713Z,102625.91
2023-05-18T09:05:19.979Z,102631.81
2023-05-18T09:08:24.681Z,102627.91
2023-05-18T09:11:28.323Z,102627.34
2023-05-18T09:14:33.298Z,102627.03
2023-05-18T09:17:36.142Z,102629.25
2023-05-18T09:20:39.404Z,102633.41
2023-05-18T09:23:45.190Z,102621.94
2023-05-18T09:26:47.815Z,102621.69
2023-05-18T09:29:55.222Z,102622.19
2023-05-18T09:32:58.084Z,102616.41
2023-05-18T09:36:00.817Z,102617.69
2023-05-18T09:39:09.438Z,102612.03
2023-05-18T09:42:12.227Z,102605.78
2023-05-18T09:45:18.322Z,102609.22
2023-05-18T09:48:25.073Z,102605.06
2023-05-18T09:51:28.097Z,102614.53
2023-05-18T09:54:32.075Z,102606.66
2023-05-18T09:57:40.754Z,102608.09
2023-05-18T10:00:45.177Z,102601.97
2023-05-18T10:03:49.698Z,102614.72
2023-05-18T10:06:52.742Z,102606.91
2023-05-18T10:10:03.485Z,102599.91
2023-05-18T10:13:06.211Z,102600.56
2023-05-18T10:16:09.276Z,102598.53
2023-05-18T10:19:13.451Z,102592.25
2023-05-18T10:22:18.414Z,102602.41
2023-05-18T10:25:26.706Z,102591.69
2023-05-18T10:28:33.910Z,102593.88
2023-05-18T10:31:38.403Z,102599.16
2023-05-18T10:34:43.472Z,102590.88
2023-05-18T10:37:48.508Z,102590.91
2023-05-18T10:40:54.423Z,102582.09
2023-05-18T10:44:03.778Z,102582.41
2023-05-18T10:47:11.423Z,102585.75
2023-05-18T10:50:16.546Z,102571.69
2023-05-18T10:53:20.703Z,102574.66
2023-05-18T10:56:24.761Z,102578.38
2023-05-18T10:59:28.561Z,102584.44
2023-05-18T11:02:31.607Z,102583.44
2023-05-18T11:05:34.292Z,102585.66
2023-05-18T11:08:44.818Z,102582.31
2023-05-18T11:11:57.326Z,102570.06
2023-05-18T11:15:00.995Z,102566.66
2023-05-18T11:18:16.802Z,102569.31
2023-05-18T11:21:31.968Z,102569.22
2023-05-18T11:24:36.432Z,102572.81
2023-05-18T11:27:40.436Z,102573.97
2023-05-18T11:30:52.015Z,102564.00
2023-05-18T11:33:54.684Z,102564.13
2023-05-18T11:36:57.385Z,102561.19
2023-05-18T11:40:02.510Z,102562.09
2023-05-18T11:43:09.724Z,102556.63
2023-05-18T11:46:19.342Z,102557.06
2023-05-18T11:49:24.900Z,102557.97
2023-05-18T11:52:27.776Z,102551.78
2023-05-18T11:55:39.116Z,102551.44
2023-05-18T11:58:43.158Z,102545.31
2023-05-18T12:01:46.521Z,102541.66
2023-05-18T12:04:51.092Z,102535.41
2023-05-18T12:07:54.611Z,102547.63
2023-05-18T12:10:58.110Z,102544.69
2023-05-18T12:14:02.429Z,102535.25
2023-05-18T12:17:06.202Z,102543.88
2023-05-18T12:20:09.941Z,102537.97
2023-05-18T12:23:12.560Z,102539.78
2023-05-18T12:26:15.800Z,102539.22
2023-05-18T12:29:22.891Z,102534.34
2023-05-18T12:32:26.001Z,102527.16
2023-05-18T12:35:29.852Z,102529.34
2023-05-18T12:38:32.786Z,102516.78
2023-05-18T12:41:35.439Z,102531.47
2023-05-18T12:44:39.915Z,102523.66
2023-05-18T12:47:42.998Z,102518.16
2023-05-18T12:50:50.556Z,102518.09
2023-05-18T12:53:53.224Z,102520.34
2023-05-18T12:57:02.178Z,102509.44
2023-05-18T13:00:10.587Z,102510.88
2023-05-18T13:03:16.082Z,102505.56
2023-05-18T13:06:19.655Z,102508.63
2023-05-18T13:09:22.310Z,102495.88
2023-05-18T13:12:37.170Z,102501.47
2023-05-18T13:15:43.567Z,102504.56
2023-05-18T13:18:47.477Z,102503.50
2023-05-18T13:21:59.212Z,102497.56
2023-05-18T13:25:01.829Z,102491.06
2023-05-18T13:28:04.835Z,102490.03
2023-05-18T13:31:10.514Z,102482.94
2023-05-18T13:34:14.948Z,102494.97
2023-05-18T13:37:17.633Z,102482.09
2023-05-18T13:40:22.310Z,102488.31
2023-05-18T13:43:24.956Z,102486.09
2023-05-18T13:46:29.075Z,102481.56
2023-05-18T13:49:31.710Z,102485.28
2023-05-18T13:52:34.572Z,102481.84
2023-05-18T13:55:37.449Z,102474.13
2023-05-18T13:58:40.116Z,102481.91
2023-05-18T14:01:44.737Z,102475.28
2023-05-18T14:04:47.476Z,102470.72
2023-05-18T14:07:50.231Z,102478.41
2023-05-18T14:10:52.896Z,102469.41
2023-05-18T14:13:55.517Z,102475.38
2023-05-18T14:16:59.573Z,102467.47
2023-05-18T14:20:02.809Z,102468.97
2023-05-18T14:23:06.506Z,102463.38
2023-05-18T14:26:10.959Z,102459.41
2023-05-18T14:29:13.619Z,102456.78
2023-05-18T14:32:17.806Z,102457.28
2023-05-18T14:35:20.471Z,102457.31
2023-05-18T14:38:26.707Z,102456.19
2023-05-18T14:41:29.583Z,102456.28
2023-05-18T14:44:32.244Z,102450.47
2023-05-18T14:47:36.245Z,102451.94
2023-05-18T14:50:39.623Z,102452.88
2023-05-18T14:53:42.615Z,102443.00
2023-05-18T14:56:45.419Z,102451.34
2023-05-18T14:59:48.040Z,102444.09
2023-05-18T15:02:52.132Z,102441.84
2023-05-18T15:05:54.849Z,102438.50
2023-05-18T15:08:57.514Z,102441.59
2023-05-18T15:12:00.183Z,102439.03
2023-05-18T15:15:02.850Z,102445.84
2023-05-18T15:18:06.977Z,102439.69
2023-05-18T15:21:09.661Z,102437.00
2023-05-18T15:24:12.315Z,102430.38
2023-05-18T15:27:14.977Z,102432.78
2023-05-18T15:30:17.692Z,102426.78
2023-05-18T15:33:21.725Z,102428.28
2023-05-18T15:36:25.035Z,102433.63
2023-05-18T15:39:27.770Z,102419.69
2023-05-18T15:42:30.626Z,102422.66
2023-05-18T15:45:33.366Z,102425.31
2023-05-18T15:48:37.322Z,102422.56
2023-05-18T15:51:39.941Z,102418.94
2023-05-18T15:54:42.599Z,102418.44
2023-05-18T15:57:45.373Z,102415.66
2023-05-18T16:00:48.447Z,102417.06
2023-05-18T16:03:52.748Z,102417.81
2023-05-18T16:06:55.627Z,102405.84
2023-05-18T16:09:58.248Z,102419.03
2023-05-18T16:13:05.657Z,102419.81
2023-05-18T16:16:10.310Z,102418.19
2023-05-18T16:19:14.498Z,102416.44
2023-05-18T16:22:17.312Z,102418.59
2023-05-18T16:25:19.949Z,102411.44
2023-05-18T16:28:22.578Z,102408.66
2023-05-18T16:31:25.256Z,102413.13
2023-05-18T16:34:29.245Z,102413.09
2023-05-18T16:37:31.892Z,102411.75
2023-05-18T16:40:34.702Z,102420.63
2023-05-18T16:43:37.526Z,102416.41
2023-05-18T16:46:40.181Z,102412.50
2023-05-18T16:49:45.434Z,102417.91
2023-05-18T16:52:48.382Z,102413.59
2023-05-18T16:55:51.164Z,102417.75
2023-05-18T16:58:53.903Z,102412.72
2023-05-18T17:01:56.619Z,102412.31
2023-05-18T17:05:00.628Z,102416.16
2023-05-18T17:08:03.428Z,102415.06
2023-05-18T17:11:06.134Z,102419.56
2023-05-18T17:14:08.791Z,102414.69
2023-05-18T17:17:11.524Z,102415.84
2023-05-18T17:20:15.513Z,102416.13
2023-05-18T17:23:18.740Z,102425.28
2023-05-18T17:26:21.432Z,102422.00
2023-05-18T17:29:24.264Z,102433.00
2023-05-18T17:32:26.931Z,102422.28
2023-05-18T17:35:30.938Z,102426.72
2023-05-18T17:38:33.583Z,102420.78
2023-05-18T17:41:36.283Z,102423.69
2023-05-18T17:44:39.045Z,102425.69
2023-05-18T17:47:42.456Z,102421.63
2023-05-18T17:50:47.588Z,102432.22
2023-05-18T17:53:50.298Z,102435.94
2023-05-18T17:56:53.050Z,102434.78
2023-05-18T17:59:55.714Z,102437.50
2023-05-18T18:02:58.440Z,102434.84
2023-05-18T18:06:02.629Z,102443.38
2023-05-18T18:09:05.842Z,102442.22
2023-05-18T18:12:09.464Z,102446.28
2023-05-18T18:15:13.110Z,102441.78
2023-05-18T18:18:15.766Z,102442.03
2023-05-18T18:21:19.768Z,102433.41
2023-05-18T18:24:23.621Z,102429.78
2023-05-18T18:27:26.323Z,102440.06
2023-05-18T18:30:29.056Z,102440.06
2023-05-18T18:33:32.567Z,102448.03
2023-05-18T18:36:36.893Z,102448.00
2023-05-18T18:39:39.645Z,102437.53
2023-05-18T18:42:42.264Z,102446.91
2023-05-18T18:45:44.987Z,102449.50
2023-05-18T18:48:47.639Z,102455.88
2023-05-18T18:51:53.077Z,102452.53
2023-05-18T18:54:55.931Z,102455.69
2023-05-18T18:57:59.546Z,102455.06
2023-05-18T19:01:02.207Z,102467.22
2023-05-18T19:04:04.979Z,102457.28
2023-05-18T19:07:08.985Z,102459.22
2023-05-18T19:10:12.186Z,102457.78
2023-05-18T19:13:14.837Z,102467.66
2023-05-18T19:16:18.157Z,102461.69
2023-05-18T19:19:20.934Z,102471.94
2023-05-18T19:22:25.051Z,102476.69
2023-05-18T19:25:29.825Z,102485.00
2023-05-18T19:28:32.756Z,102486.16
2023-05-18T19:31:36.977Z,102481.16
2023-05-18T19:34:39.601Z,102483.25
2023-05-18T19:37:43.787Z,102484.34
2023-05-18T19:40:46.419Z,102492.56
2023-05-18T19:43:49.179Z,102487.38
2023-05-18T19:46:51.922Z,102492.13
2023-05-18T19:49:54.554Z,102493.25
2023-05-18T19:52:58.549Z,102498.81
2023-05-18T19:56:01.421Z,102488.28
2023-05-18T19:59:04.202Z,102488.47
2023-05-18T20:02:06.977Z,102489.63
2023-05-18T20:05:12.481Z,102494.06
2023-05-18T20:08:16.768Z,102500.38
2023-05-18T20:11:19.601Z,102491.69
2023-05-18T20:14:22.261Z,102487.47
2023-05-18T20:17:25.590Z,102501.75
2023-05-18T20:20:30.480Z,102496.72
2023-05-18T20:23:34.886Z,102502.22
2023-05-18T20:26:37.519Z,102508.56
2023-05-18T20:29:40.298Z,102507.00
2023-05-18T20:32:42.944Z,102507.94
2023-05-18T20:35:45.951Z,102502.75
2023-05-18T20:38:50.200Z,102511.72
2023-05-18T20:41:53.656Z,102515.38
2023-05-18T20:44:57.519Z,102501.41
2023-05-18T20:48:00.742Z,102510.38
2023-05-18T20:51:03.406Z,102512.16
2023-05-18T20:54:07.608Z,102507.03
2023-05-18T20:57:10.513Z,102512.53
2023-05-18T21:00:14.149Z,102512.69
2023-05-18T21:03:18.269Z,102509.13
2023-05-18T21:06:21.285Z,102526.06
2023-05-18T21:09:25.590Z,102521.00
2023-05-18T21:12:28.273Z,102516.56
2023-05-18T21:15:31.489Z,102516.56
2023-05-18T21:18:34.980Z,102518.44
2023-05-18T21:21:37.729Z,102513.25
2023-05-18T21:24:41.740Z,102506.34
2023-05-18T21:27:44.384Z,102515.28
2023-05-18T21:30:48.141Z,102517.03
2023-05-18T21:33:52.517Z,102514.53
2023-05-18T21:36:55.353Z,102513.00
2023-05-18T21:39:59.333Z,102523.72
2023-05-18T21:43:01.952Z,102515.00
2023-05-18T21:46:05.955Z,102522.09
2023-05-18T21:49:10.824Z,102517.78
2023-05-18T21:52:15.204Z,102511.59
2023-05-18T21:55:19.447Z,102514.31
2023-05-18T21:58:22.311Z,102520.59
2023-05-18T22:01:24.961Z,102522.47
2023-05-18T22:04:27.704Z,102517.28
2023-05-18T22:07:30.651Z,102520.88
2023-05-18T22:10:34.799Z,102527.97
2023-05-18T22:13:37.630Z,102526.28
2023-05-18T22:16:40.373Z,102526.28
2023-05-18T22:19:43.064Z,102530.78
2023-05-18T22:22:45.694Z,102528.19
2023-05-18T22:25:49.964Z,102524.59
2023-05-18T22:28:52.630Z,102524.69
2023-05-18T22:31:55.391Z,102527.44
2023-05-18T22:34:59.891Z,102522.13
2023-05-18T22:38:02.559Z,102524.75
2023-05-18T22:41:06.564Z,102522.13
2023-05-18T22:44:09.179Z,102524.03
2023-05-18T22:47:11.897Z,102516.06
2023-05-18T22:50:14.850Z,102522.25
2023-05-18T22:53:17.543Z,102526.78
2023-05-18T22:56:22.209Z,102516.16
2023-05-18T22:59:25.469Z,102522.38
2023-05-18T23:02:28.199Z,102528.66
2023-05-18T23:05:32.596Z,102526.91
2023-05-18T23:08:36.773Z,102515.47
2023-05-18T23:11:40.984Z,102517.34
2023-05-18T23:14:44.603Z,102515.53
2023-05-18T23:17:47.298Z,102517.28
2023-05-18T23:20:55.464Z,102524.34
2023-05-18T23:23:59.702Z,102523.56
2023-05-18T23:27:03.774Z,102520.06
2023-05-18T23:30:07.552Z,102514.75
2023-05-18T23:33:10.755Z,102516.50
2023-05-18T23:36:15.233Z,102507.75
2023-05-18T23:39:17.903Z,102503.31
2023-05-18T23:42:22.350Z,102498.00
2023-05-18T23:45:25.456Z,102498.00
2023-05-18T23:48:29.674Z,102496.31
2023-05-18T23:51:36.263Z,102498.06
2023-05-18T23:54:39.435Z,102492.75
2023-05-18T23:57:44.187Z,102493.69
